Time;durP1;ratioP1;P1;durP2;ratioP2;P2;SDS_P1;SDS_P2;PMS_P1;PMS_P2;Temp;Humidity;BMP_temperature;BMP_pressure;BME280_temperature;BME280_humidity;BME280_pressure;Samples;Min_cycle;Max_cycle;Signal;HPM_P1;HPM_P2
2022/04/09 00:00:09;;;;;;;24.25;12.15;;;;;;;2.14;100.00;98747.70;1720277;83;21145;-69
2022/04/09 00:02:37;;;;;;;17.92;11.22;;;;;;;2.08;100.00;98748.69;1720508;83;21045;-69
2022/04/09 00:05:06;;;;;;;18.48;10.53;;;;;;;2.04;100.00;98755.30;1720195;83;21620;-70
2022/04/09 00:07:33;;;;;;;20.37;10.53;;;;;;;1.94;100.00;98761.16;1720566;83;21041;-69
2022/04/09 00:10:00;;;;;;;19.67;10.20;;;;;;;1.94;100.00;98761.16;1720503;83;21013;-69
2022/04/09 00:12:29;;;;;;;19.05;9.83;;;;;;;1.86;100.00;98757.46;1720313;83;21061;-69
2022/04/09 00:14:56;;;;;;;17.00;9.53;;;;;;;1.74;100.00;98749.94;1720369;83;21135;-69
2022/04/09 00:17:24;;;;;;;17.75;8.83;;;;;;;1.74;100.00;98749.94;1720354;83;21037;-69
2022/04/09 00:19:52;;;;;;;18.07;9.48;;;;;;;1.70;100.00;98754.79;1720397;83;21061;-69
2022/04/09 00:22:20;;;;;;;14.87;8.10;;;;;;;1.65;100.00;98762.67;1720543;83;20998;-69
2022/04/09 00:24:47;;;;;;;19.55;10.20;;;;;;;1.58;100.00;98756.38;1720625;83;21120;-69
2022/04/09 00:27:13;;;;;;;16.07;9.50;;;;;;;1.54;100.00;98759.92;1720530;83;21068;-68
2022/04/09 00:29:40;;;;;;;16.87;10.70;;;;;;;1.54;100.00;98759.92;1720633;83;21131;-70
2022/04/09 00:32:09;;;;;;;20.10;11.20;;;;;;;1.49;100.00;98763.06;1720430;83;21073;-69
2022/04/09 00:34:36;;;;;;;21.10;11.25;;;;;;;1.49;100.00;98760.47;1720529;82;21112;-69
2022/04/09 00:37:03;;;;;;;21.37;11.00;;;;;;;1.42;100.00;98760.59;1720555;83;21049;-70
2022/04/09 00:39:31;;;;;;;20.27;11.03;;;;;;;1.37;100.00;98757.26;1720169;83;21077;-68
2022/04/09 00:41:59;;;;;;;23.22;11.80;;;;;;;1.36;100.00;98747.78;1720444;83;21149;-70
2022/04/09 00:44:25;;;;;;;19.17;11.40;;;;;;;1.39;100.00;98752.89;1720403;83;21513;-69
2022/04/09 00:46:53;;;;;;;18.65;10.25;;;;;;;1.31;100.00;98750.93;1720478;83;21494;-69
2022/04/09 00:49:24;;;;;;;19.07;10.70;;;;;;;1.26;100.00;98760.52;1720304;83;21052;-69
2022/04/09 00:51:51;;;;;;;17.95;10.60;;;;;;;1.29;100.00;98769.55;1735251;82;21018;-69
2022/04/09 00:54:20;;;;;;;15.93;9.18;;;;;;;1.30;100.00;98763.47;1736079;82;21305;-69
2022/04/09 00:56:48;;;;;;;16.62;9.98;;;;;;;1.30;100.00;98769.11;1688466;85;21359;-69
2022/04/09 00:59:15;;;;;;;19.57;10.98;;;;;;;1.30;100.00;98773.84;1735889;82;21061;-69
2022/04/09 01:01:42;;;;;;;16.10;9.43;;;;;;;1.28;100.00;98766.98;1742209;82;21048;-70
2022/04/09 01:04:11;;;;;;;17.35;9.85;;;;;;;1.30;100.00;98775.14;1723791;82;21092;-69
2022/04/09 01:06:39;;;;;;;13.88;7.83;;;;;;;1.27;100.00;98773.92;1750973;82;21248;-69
2022/04/09 01:09:08;;;;;;;17.30;9.08;;;;;;;1.29;100.00;98771.27;1751033;82;21021;-69
2022/04/09 01:11:36;;;;;;;19.57;11.33;;;;;;;1.26;100.00;98756.63;1750817;82;21021;-69
2022/04/09 01:14:04;;;;;;;19.65;11.73;;;;;;;1.24;100.00;98751.50;1699719;82;21096;-70
2022/04/09 01:16:33;;;;;;;22.35;12.40;;;;;;;1.28;100.00;98751.42;1751015;81;21069;-69
2022/04/09 01:19:01;;;;;;;22.00;12.33;;;;;;;1.34;100.00;98754.73;1750934;81;21318;-69
2022/04/09 01:21:31;;;;;;;27.48;14.33;;;;;;;1.38;100.00;98755.09;1751079;82;26034;-68
2022/04/09 01:24:01;;;;;;;22.02;12.82;;;;;;;1.39;100.00;98750.30;1723779;82;21005;-69
2022/04/09 01:26:29;;;;;;;25.92;12.23;;;;;;;1.38;100.00;98746.02;1751452;82;21041;-69
2022/04/09 01:28:57;;;;;;;17.90;11.18;;;;;;;1.32;100.00;98746.14;1751045;82;21033;-69
2022/04/09 01:31:24;;;;;;;20.48;11.25;;;;;;;1.31;100.00;98744.86;1751178;82;21156;-69
2022/04/09 01:33:51;;;;;;;17.90;10.05;;;;;;;1.30;100.00;98754.84;1750919;82;21025;-69
2022/04/09 01:36:18;;;;;;;17.20;9.45;;;;;;;1.31;100.00;98758.71;1751247;82;21549;-69
2022/04/09 01:38:47;;;;;;;16.30;9.70;;;;;;;1.30;100.00;98755.69;1751062;82;21048;-68
2022/04/09 01:41:13;;;;;;;20.25;11.70;;;;;;;1.29;100.00;98751.41;1750871;82;21036;-70
2022/04/09 01:43:42;;;;;;;22.67;12.78;;;;;;;1.32;100.00;98758.26;1750322;82;21206;-69
2022/04/09 01:46:10;;;;;;;26.52;13.65;;;;;;;1.38;100.00;98756.39;1750867;82;21057;-68
2022/04/09 01:48:37;;;;;;;20.55;10.38;;;;;;;1.50;100.00;98757.86;1750932;82;21141;-70
2022/04/09 01:51:05;;;;;;;19.80;11.48;;;;;;;1.50;100.00;98757.86;1729918;81;21089;-69
2022/04/09 01:53:34;;;;;;;20.50;12.30;;;;;;;1.58;100.00;98765.45;1718229;83;21142;-70
2022/04/09 01:56:01;;;;;;;26.45;13.58;;;;;;;1.68;100.00;98759.19;1718246;83;21226;-69
2022/04/09 01:58:31;;;;;;;22.43;12.27;;;;;;;1.73;100.00;98756.03;1718468;83;21088;-70
2022/04/09 02:01:00;;;;;;;22.10;11.55;;;;;;;1.73;100.00;98762.52;1718102;82;21145;-70
2022/04/09 02:03:28;;;;;;;24.02;12.03;;;;;;;1.78;100.00;98760.67;1712198;83;21106;-69
2022/04/09 02:05:56;;;;;;;21.55;10.48;;;;;;;1.93;100.00;98746.91;1712271;83;21083;-68
2022/04/09 02:08:23;;;;;;;19.87;10.93;;;;;;;1.93;100.00;98746.91;1712114;83;22174;-69
2022/04/09 02:10:54;;;;;;;20.15;9.35;;;;;;;2.06;100.00;98743.13;1712320;83;21051;-69
2022/04/09 02:13:22;;;;;;;17.15;8.43;;;;;;;2.25;100.00;98748.26;1712461;83;21043;-69
2022/04/09 02:15:49;;;;;;;18.27;7.97;;;;;;;2.48;100.00;98749.41;1712300;83;21066;-71
2022/04/09 02:18:19;;;;;;;15.53;8.30;;;;;;;2.70;100.00;98744.51;1710752;83;21047;-70
2022/04/09 02:20:48;;;;;;;14.13;7.78;;;;;;;2.85;100.00;98740.62;1712345;83;21079;-69
2022/04/09 02:23:16;;;;;;;12.60;6.50;;;;;;;3.01;100.00;98731.94;1712089;83;22089;-69
2022/04/09 02:25:43;;;;;;;11.45;6.50;;;;;;;3.18;100.00;98724.97;1712401;83;21091;-69
2022/04/09 02:28:11;;;;;;;11.88;5.97;;;;;;;3.32;100.00;98720.20;1712498;83;21063;-69
2022/04/09 02:30:38;;;;;;;10.25;5.62;;;;;;;3.58;100.00;98724.59;1712322;83;21134;-70
2022/04/09 02:33:06;;;;;;;14.68;5.95;;;;;;;3.76;100.00;98724.47;1712053;83;21269;-70
2022/04/09 02:35:40;;;;;;;12.20;5.55;;;;;;;3.90;100.00;98710.55;1711874;83;21145;-70
2022/04/09 02:38:09;;;;;;;10.32;5.80;;;;;;;4.07;100.00;98706.54;1712174;83;21047;-69
2022/04/09 02:40:39;;;;;;;10.53;5.55;;;;;;;4.16;100.00;98699.72;1712255;83;21118;-70
2022/04/09 02:43:06;;;;;;;9.90;5.12;;;;;;;4.19;100.00;98683.54;1712205;83;21043;-69
2022/04/09 02:45:34;;;;;;;9.63;5.22;;;;;;;4.23;100.00;98679.05;1712150;83;21918;-69
2022/04/09 02:48:01;;;;;;;9.40;5.50;;;;;;;4.30;100.00;98675.36;1711855;83;21658;-69
2022/04/09 02:50:31;;;;;;;8.83;5.25;;;;;;;4.35;100.00;98677.81;1712328;83;21079;-70
2022/04/09 02:52:58;;;;;;;12.78;4.87;;;;;;;4.35;100.00;98691.69;1712246;83;21079;-71
2022/04/09 02:55:25;;;;;;;8.20;4.53;;;;;;;4.36;100.00;98685.55;1712400;82;21040;-70
2022/04/09 02:57:52;;;;;;;12.78;4.95;;;;;;;4.39;100.00;98683.28;1712251;83;21157;-70
2022/04/09 03:00:22;;;;;;;11.83;5.35;;;;;;;4.40;100.00;98681.94;1712507;83;21079;-70
2022/04/09 03:02:49;;;;;;;10.65;4.65;;;;;;;4.40;100.00;98680.64;1735742;82;21143;-70
2022/04/09 03:05:27;;;;;;;12.15;5.15;;;;;;;4.39;100.00;98674.16;1750395;82;21526;-70
2022/04/09 03:07:53;;;;;;;9.45;5.53;;;;;;;4.37;100.00;98678.16;1751131;81;21087;-70
2022/04/09 03:10:20;;;;;;;12.58;5.92;;;;;;;4.40;100.00;98679.34;1750875;82;21268;-70
2022/04/09 03:12:48;;;;;;;13.18;5.87;;;;;;;4.40;100.00;98671.52;1750668;82;21370;-70
2022/04/09 03:15:17;;;;;;;14.35;5.92;;;;;;;4.45;100.00;98666.59;1751043;82;21251;-69
2022/04/09 03:17:45;;;;;;;10.03;6.03;;;;;;;4.46;100.00;98660.47;1750802;81;21025;-69
2022/04/09 03:20:12;;;;;;;10.18;5.40;;;;;;;4.50;100.00;98664.21;1750905;82;21172;-70
2022/04/09 03:22:47;;;;;;;12.45;5.90;;;;;;;4.55;100.00;98662.74;1751189;81;21126;-70
2022/04/09 03:25:15;;;;;;;10.25;5.95;;;;;;;4.59;100.00;98663.03;1750896;82;21049;-70
2022/04/09 03:27:43;;;;;;;12.73;6.15;;;;;;;4.59;100.00;98660.43;1751210;82;21093;-70
2022/04/09 03:30:10;;;;;;;12.63;6.20;;;;;;;4.65;100.00;98659.34;1750899;82;21001;-70
2022/04/09 03:32:40;;;;;;;14.60;5.92;;;;;;;4.66;100.00;98657.99;1750754;82;21084;-69
2022/04/09 03:35:10;;;;;;;7.83;5.15;;;;;;;4.72;100.00;98656.94;1751102;81;21794;-71
2022/04/09 03:37:38;;;;;;;11.48;6.42;;;;;;;4.75;100.00;98655.51;1750664;82;21557;-70
2022/04/09 03:40:08;;;;;;;12.80;6.28;;;;;;;4.79;100.00;98659.71;1750967;81;21321;-69
2022/04/09 03:42:36;;;;;;;11.03;6.62;;;;;;;4.82;100.00;98646.08;1751059;82;21065;-70
2022/04/09 03:45:05;;;;;;;12.47;6.50;;;;;;;4.89;100.00;98648.02;1750982;81;21021;-71
2022/04/09 03:47:33;;;;;;;11.50;5.70;;;;;;;4.95;100.00;98643.87;1750941;82;21199;-70
2022/04/09 03:50:05;;;;;;;10.78;5.65;;;;;;;5.03;100.00;98651.41;1743841;82;21071;-71
2022/04/09 03:52:33;;;;;;;13.10;6.55;;;;;;;5.08;100.00;98661.20;1716856;83;21075;-70
2022/04/09 03:55:00;;;;;;;13.85;6.62;;;;;;;5.10;100.00;98675.52;1716485;83;21127;-70
2022/04/09 03:57:28;;;;;;;12.07;7.35;;;;;;;5.12;100.00;98678.91;1716444;83;21093;-70
2022/04/09 03:59:57;;;;;;;12.93;7.17;;;;;;;5.13;100.00;98676.69;1716161;83;21706;-71
2022/04/09 04:02:24;;;;;;;18.62;8.00;;;;;;;5.17;100.00;98688.25;1718352;83;21630;-70
2022/04/09 04:04:53;;;;;;;14.25;7.70;;;;;;;5.19;100.00;98674.70;1724110;83;21097;-70
2022/04/09 04:07:22;;;;;;;15.60;8.05;;;;;;;5.22;100.00;98677.64;1724073;83;21603;-70
2022/04/09 04:09:51;;;;;;;14.98;8.25;;;;;;;5.20;100.00;98676.42;1724234;83;21672;-70
2022/04/09 04:12:18;;;;;;;14.13;7.97;;;;;;;5.20;100.00;98684.25;1724348;83;21251;-69
2022/04/09 04:16:59;;;;;;;16.15;8.50;;;;;;;5.24;100.00;98699.31;1814239;79;26505;-71
2022/04/09 04:19:27;;;;;;;15.35;8.30;;;;;;;5.24;100.00;98711.06;1787450;80;21560;-72
2022/04/09 04:21:54;;;;;;;16.57;8.25;;;;;;;5.24;100.00;98743.26;1787436;80;21140;-69
2022/04/09 04:24:23;;;;;;;16.10;7.75;;;;;;;5.23;100.00;98763.73;1787569;80;21033;-70
2022/04/09 04:26:52;;;;;;;13.93;7.70;;;;;;;5.19;100.00;98773.03;1787604;80;21041;-70
2022/04/09 04:29:23;;;;;;;12.93;7.53;;;;;;;5.15;100.00;98784.02;1787757;80;21384;-69
2022/04/09 04:31:51;;;;;;;18.27;9.20;;;;;;;5.13;100.00;98779.34;1787543;80;21088;-69
2022/04/09 04:34:19;;;;;;;17.10;8.65;;;;;;;5.11;100.00;98775.93;1787498;80;21136;-73
2022/04/09 04:36:47;;;;;;;12.20;7.45;;;;;;;5.14;100.00;98770.59;1787505;80;21097;-70
2022/04/09 04:39:17;;;;;;;14.20;7.62;;;;;;;5.19;100.00;98762.12;1787546;80;21100;-71
2022/04/09 04:41:45;;;;;;;10.63;6.28;;;;;;;5.27;100.00;98771.00;1786794;80;21506;-70
2022/04/09 04:44:12;;;;;;;12.80;6.15;;;;;;;5.31;100.00;98767.80;1787562;80;21029;-71
2022/04/09 04:46:41;;;;;;;9.53;5.80;;;;;;;5.37;100.00;98757.14;1786938;80;21573;-70
2022/04/09 04:49:09;;;;;;;9.45;5.22;;;;;;;5.44;100.00;98757.30;1787165;80;21064;-72
2022/04/09 04:51:36;;;;;;;8.38;5.25;;;;;;;5.48;100.00;98751.06;1787631;80;21057;-70
2022/04/09 04:54:03;;;;;;;11.05;5.10;;;;;;;5.54;100.00;98754.72;1787486;80;21092;-73
2022/04/09 04:56:33;;;;;;;7.67;5.37;;;;;;;5.57;100.00;98755.94;1787552;80;21060;-70
2022/04/09 04:59:02;;;;;;;10.03;5.25;;;;;;;5.63;100.00;98755.67;1787290;80;21041;-71
2022/04/09 05:01:34;;;;;;;11.45;5.83;;;;;;;5.66;100.00;98756.04;1787089;80;21010;-70
2022/04/09 05:04:02;;;;;;;11.85;5.45;;;;;;;5.70;100.00;98742.39;1787467;80;21100;-71
2022/04/09 05:06:32;;;;;;;8.67;4.73;;;;;;;5.74;100.00;98743.97;1787646;80;21277;-70
2022/04/09 05:09:00;;;;;;;8.55;4.95;;;;;;;5.74;100.00;98746.59;1787229;79;21748;-72
2022/04/09 05:11:29;;;;;;;12.90;5.40;;;;;;;5.76;100.00;98747.38;1786713;80;21250;-71
2022/04/09 05:13:57;;;;;;;12.60;5.22;;;;;;;5.77;100.00;98739.92;1787310;80;22238;-70
2022/04/09 05:16:25;;;;;;;8.00;4.75;;;;;;;5.80;100.00;98737.21;1778554;80;21030;-70
2022/04/09 05:18:56;;;;;;;13.48;5.50;;;;;;;5.82;100.00;98734.05;1773790;80;21360;-70
2022/04/09 05:21:26;;;;;;;10.63;5.25;;;;;;;5.84;100.00;98724.39;1773765;80;21006;-71
2022/04/09 05:23:53;;;;;;;13.18;6.83;;;;;;;5.90;100.00;98716.31;1774101;80;21829;-71
2022/04/09 05:26:22;;;;;;;14.30;7.62;;;;;;;5.94;100.00;98714.02;1773849;80;21549;-69
2022/04/09 05:28:55;;;;;;;16.05;9.78;;;;;;;6.02;100.00;98707.16;1773533;80;21022;-70
2022/04/09 05:31:19;;;;;;;12.65;7.53;;;;;;;6.06;100.00;98697.82;1772390;80;21089;-73
2022/04/09 05:33:47;;;;;;;12.13;7.28;;;;;;;6.08;100.00;98694.69;1773418;80;21037;-69
2022/04/09 05:36:15;;;;;;;12.60;6.92;;;;;;;6.13;100.00;98688.42;1773535;80;21899;-71
2022/04/09 05:38:42;;;;;;;11.15;6.85;;;;;;;6.15;100.00;98682.69;1751455;80;21069;-72
2022/04/09 05:41:09;;;;;;;13.00;6.97;;;;;;;6.17;100.00;98671.70;1773566;80;21073;-70
2022/04/09 05:43:37;;;;;;;11.00;6.22;;;;;;;6.22;100.00;98662.74;1773462;80;21046;-71
2022/04/09 05:46:04;;;;;;;11.05;5.33;;;;;;;6.29;100.00;98663.33;1773573;80;21042;-71
2022/04/09 05:48:34;;;;;;;12.30;6.70;;;;;;;6.30;100.00;98659.78;1773844;80;21700;-71
2022/04/09 05:51:01;;;;;;;13.13;5.30;;;;;;;6.36;100.00;98660.00;1773570;80;21802;-71
2022/04/09 05:53:29;;;;;;;9.30;5.78;;;;;;;6.43;100.00;98651.81;1773482;80;21026;-70
2022/04/09 05:55:59;;;;;;;11.85;5.80;;;;;;;6.49;100.00;98656.78;1773566;80;21089;-70
2022/04/09 05:58:30;;;;;;;8.90;5.95;;;;;;;6.55;100.00;98656.11;1773494;80;21074;-69
2022/04/09 06:01:00;;;;;;;10.48;6.00;;;;;;;6.59;100.00;98652.45;1773472;80;21112;-71
2022/04/09 06:03:30;;;;;;;12.78;6.20;;;;;;;6.64;100.00;98651.78;1773662;80;21045;-70
2022/04/09 06:05:58;;;;;;;8.95;5.40;;;;;;;6.66;100.00;98640.33;1751288;80;21058;-71
2022/04/09 06:08:38;;;;;;;11.00;5.30;;;;;;;6.68;100.00;98641.58;1773310;80;21019;-70
2022/04/09 06:11:08;;;;;;;14.63;5.25;;;;;;;6.68;100.00;98636.34;1741465;82;21034;-71
2022/04/09 06:13:36;;;;;;;12.28;6.05;;;;;;;6.70;100.00;98626.67;1742795;82;21031;-69
2022/04/09 06:16:08;;;;;;;10.48;5.78;;;;;;;6.74;100.00;98620.38;1742717;82;21533;-71
2022/04/09 06:18:38;;;;;;;8.70;5.25;;;;;;;6.80;100.00;98616.16;1742843;82;21116;-71
2022/04/09 06:21:05;;;;;;;12.10;5.17;;;;;;;6.85;100.00;98618.09;1742773;82;21061;-71
2022/04/09 06:23:33;;;;;;;10.75;5.22;;;;;;;6.87;100.00;98625.42;1742883;82;21084;-69
2022/04/09 06:26:01;;;;;;;10.63;5.55;;;;;;;6.87;100.00;98609.72;1742734;82;21018;-72
2022/04/09 06:28:31;;;;;;;11.10;5.70;;;;;;;6.88;100.00;98610.12;1742848;82;21133;-71
2022/04/09 06:30:59;;;;;;;9.63;5.72;;;;;;;6.93;100.00;98604.21;1742815;81;21056;-71
2022/04/09 06:33:27;;;;;;;10.88;6.20;;;;;;;6.97;100.00;98599.70;1742758;82;21467;-70
2022/04/09 06:35:56;;;;;;;10.63;5.97;;;;;;;7.00;100.00;98601.31;1742569;82;21101;-70
2022/04/09 06:38:27;;;;;;;8.55;5.10;;;;;;;7.10;100.00;98598.64;1742904;82;21265;-73
2022/04/09 06:40:54;;;;;;;9.33;5.75;;;;;;;7.18;100.00;98601.77;1742594;82;21018;-70
2022/04/09 06:43:23;;;;;;;10.20;5.20;;;;;;;7.24;100.00;98598.83;1742647;82;21073;-70
2022/04/09 06:45:54;;;;;;;8.35;4.85;;;;;;;7.34;100.00;98596.64;1742498;82;21605;-71
2022/04/09 06:48:31;;;;;;;9.23;5.17;;;;;;;7.44;99.99;98599.66;1742772;82;21092;-71
2022/04/09 06:51:11;;;;;;;11.80;5.63;;;;;;;7.54;99.40;98595.65;1763694;80;21803;-70
2022/04/09 06:53:38;;;;;;;11.43;5.28;;;;;;;7.65;98.86;98589.42;1750868;80;21085;-71
2022/04/09 06:56:05;;;;;;;15.20;5.30;;;;;;;7.74;97.95;98582.87;1773394;80;21043;-70
2022/04/09 06:58:34;;;;;;;12.85;5.50;;;;;;;7.84;98.04;98588.03;1773392;80;21094;-70
2022/04/09 07:01:03;;;;;;;10.78;4.67;;;;;;;7.95;98.05;98586.19;1773412;80;21046;-70
2022/04/09 07:03:31;;;;;;;10.82;5.05;;;;;;;8.10;98.14;98580.64;1773727;80;21153;-71
2022/04/09 07:05:58;;;;;;;10.43;4.70;;;;;;;8.26;97.58;98576.73;1773451;80;21006;-72
2022/04/09 07:08:25;;;;;;;8.48;4.45;;;;;;;8.40;97.01;98574.28;1773727;80;21033;-71
2022/04/09 07:10:52;;;;;;;7.65;4.50;;;;;;;8.56;96.02;98569.91;1773471;80;21018;-71
2022/04/09 07:13:19;;;;;;;7.87;4.20;;;;;;;8.70;96.86;98574.89;1773551;80;21116;-72
2022/04/09 07:15:47;;;;;;;8.18;4.28;;;;;;;8.83;95.86;98573.27;1773276;80;21940;-71
2022/04/09 07:18:14;;;;;;;7.35;3.67;;;;;;;8.93;95.92;98582.34;1773468;80;21057;-72
2022/04/09 07:20:44;;;;;;;7.60;3.52;;;;;;;9.00;94.32;98574.51;1773285;80;21022;-71
2022/04/09 07:23:12;;;;;;;6.40;3.12;;;;;;;9.00;93.04;98582.38;1773270;80;21641;-69
2022/04/09 07:25:42;;;;;;;5.83;3.35;;;;;;;9.02;91.95;98575.27;1773428;80;21789;-71
2022/04/09 07:28:09;;;;;;;7.22;2.58;;;;;;;8.99;89.77;98581.98;1773377;80;21234;-71
2022/04/09 07:30:35;;;;;;;12.18;2.60;;;;;;;8.98;86.89;98576.37;1773223;80;21557;-71
2022/04/09 07:33:02;;;;;;;13.68;2.87;;;;;;;9.02;86.82;98581.00;1773399;80;21577;-71
2022/04/09 07:35:29;;;;;;;4.95;2.72;;;;;;;9.06;85.60;98577.25;1773393;80;21677;-70
2022/04/09 07:37:55;;;;;;;3.90;2.47;;;;;;;9.12;85.39;98576.08;1773481;80;21557;-71
2022/04/09 07:40:29;;;;;;;5.80;2.83;;;;;;;9.18;84.50;98588.88;1773411;80;21676;-71
2022/04/09 07:42:58;;;;;;;5.92;2.77;;;;;;;9.23;84.24;98578.95;1773303;80;21065;-72
2022/04/09 07:45:24;;;;;;;6.00;2.70;;;;;;;9.33;83.77;98597.19;1773381;80;21505;-70
2022/04/09 07:48:00;;;;;;;7.05;2.67;;;;;;;9.39;82.90;98582.87;1773404;80;21042;-70
2022/04/09 07:50:27;;;;;;;6.50;2.37;;;;;;;9.45;83.23;98576.81;1781177;80;22122;-69
2022/04/09 07:52:54;;;;;;;6.85;2.92;;;;;;;9.54;83.84;98581.14;1794961;80;21232;-71
2022/04/09 07:55:22;;;;;;;5.75;2.85;;;;;;;9.61;83.08;98575.43;1794689;80;21033;-70
2022/04/09 07:57:51;;;;;;;4.90;2.30;;;;;;;9.70;82.80;98567.48;1794942;80;20986;-70
2022/04/09 08:00:21;;;;;;;6.80;2.50;;;;;;;9.78;83.02;98575.78;1794955;80;21066;-69
2022/04/09 08:02:48;;;;;;;4.90;2.50;;;;;;;9.85;80.06;98573.17;1794862;80;21046;-70
2022/04/09 08:05:18;;;;;;;3.33;2.22;;;;;;;9.95;79.25;98576.57;1794380;80;21909;-70
2022/04/09 08:07:46;;;;;;;7.33;2.58;;;;;;;10.01;79.47;98570.95;1794628;80;21089;-70
2022/04/09 08:10:12;;;;;;;4.47;2.40;;;;;;;10.09;78.32;98575.27;1724056;83;22004;-72
2022/04/09 08:12:42;;;;;;;6.22;2.70;;;;;;;10.09;77.23;98567.38;1723875;82;21106;-70
2022/04/09 08:15:10;;;;;;;7.97;2.95;;;;;;;10.11;77.81;98569.45;1724127;83;21101;-70
2022/04/09 08:17:41;;;;;;;5.80;2.10;;;;;;;10.11;77.82;98561.56;1728251;83;21303;-69
2022/04/09 08:20:13;;;;;;;4.97;2.22;;;;;;;10.13;77.53;98562.32;1800295;79;21089;-71
2022/04/09 08:22:41;;;;;;;6.63;2.47;;;;;;;10.13;77.99;98557.06;1800771;79;21026;-70
2022/04/09 08:25:09;;;;;;;6.90;2.27;;;;;;;10.16;77.27;98554.23;1800688;79;20979;-70
2022/04/09 08:27:36;;;;;;;5.87;2.00;;;;;;;10.19;78.43;98550.56;1729740;83;21011;-69
2022/04/09 08:30:06;;;;;;;4.35;2.15;;;;;;;10.23;78.55;98549.45;1800614;79;21400;-69
2022/04/09 08:32:33;;;;;;;6.45;2.00;;;;;;;10.27;77.62;98550.96;1800486;79;21050;-71
2022/04/09 08:35:00;;;;;;;5.47;2.20;;;;;;;10.29;75.79;98536.80;1800207;79;21038;-70
2022/04/09 08:37:28;;;;;;;4.15;2.02;;;;;;;10.30;75.79;98541.59;1800423;79;21010;-71
2022/04/09 08:39:55;;;;;;;4.67;1.82;;;;;;;10.31;75.51;98538.48;1800288;79;21018;-71
2022/04/09 08:42:23;;;;;;;3.67;2.08;;;;;;;10.32;75.53;98544.14;1800196;79;21617;-71
2022/04/09 08:44:50;;;;;;;6.03;2.00;;;;;;;10.35;74.92;98539.52;1800351;79;21033;-70
2022/04/09 08:47:17;;;;;;;4.15;1.70;;;;;;;10.37;75.13;98540.27;1729526;83;21063;-70
2022/04/09 08:49:49;;;;;;;5.87;2.25;;;;;;;10.38;75.05;98542.45;1798086;79;21093;-71
2022/04/09 08:52:15;;;;;;;7.78;2.00;;;;;;;10.41;77.15;98543.09;1774044;80;21626;-70
2022/04/09 08:54:43;;;;;;;4.83;2.10;;;;;;;10.39;75.76;98544.97;1773904;80;21036;-70
2022/04/09 08:57:11;;;;;;;7.25;1.95;;;;;;;10.37;75.66;98544.22;1773715;80;22010;-71
2022/04/09 08:59:38;;;;;;;6.80;1.92;;;;;;;10.35;75.59;98546.56;1774032;80;21038;-70
2022/04/09 09:02:05;;;;;;;6.62;2.10;;;;;;;10.32;77.69;98549.40;1773848;80;21067;-72
2022/04/09 09:04:33;;;;;;;10.23;2.60;;;;;;;10.27;77.78;98547.86;1774242;80;21095;-70
2022/04/09 09:07:24;;;;;;;4.37;2.33;;;;;;;10.27;78.76;98546.54;1773930;80;21078;-71
2022/04/09 09:09:52;;;;;;;6.53;2.47;;;;;;;10.21;80.01;98540.80;1773967;80;21523;-71
2022/04/09 09:12:31;;;;;;;5.85;2.83;;;;;;;10.12;80.95;98547.45;1773847;80;21044;-72
2022/04/09 09:15:00;;;;;;;7.12;2.87;;;;;;;10.08;82.26;98548.61;1774121;80;21067;-70
2022/04/09 09:17:28;;;;;;;9.63;2.85;;;;;;;10.06;83.24;98545.22;1770943;80;21066;-71
2022/04/09 09:19:55;;;;;;;6.05;2.42;;;;;;;10.01;82.95;98549.92;1768733;81;21258;-70
2022/04/09 09:22:21;;;;;;;19.52;2.50;;;;;;;9.98;83.40;98548.77;1768574;81;21099;-71
2022/04/09 09:25:04;;;;;;;6.95;2.85;;;;;;;9.98;84.09;98559.28;1768527;81;21579;-70
2022/04/09 09:27:32;;;;;;;8.75;3.00;;;;;;;9.97;84.76;98554.50;1740461;81;21019;-72
2022/04/09 09:30:00;;;;;;;5.25;2.42;;;;;;;9.98;85.80;98555.34;1768985;81;21060;-71
2022/04/09 09:32:28;;;;;;;6.62;2.55;;;;;;;10.00;86.19;98556.09;1773145;80;21134;-71
2022/04/09 09:34:57;;;;;;;4.97;2.33;;;;;;;10.07;85.85;98557.42;1736646;82;21290;-71
2022/04/09 09:37:26;;;;;;;7.75;2.55;;;;;;;10.07;86.95;98549.53;1773347;80;21034;-71
2022/04/09 09:39:55;;;;;;;5.17;2.83;;;;;;;10.12;85.64;98552.72;1736380;82;21076;-70
2022/04/09 09:42:24;;;;;;;5.75;2.52;;;;;;;10.17;84.59;98552.00;1773413;80;21003;-71
2022/04/09 09:44:50;;;;;;;5.60;2.60;;;;;;;10.21;85.02;98547.38;1736547;82;21348;-72
2022/04/09 09:47:20;;;;;;;5.08;2.37;;;;;;;10.22;84.94;98545.14;1773386;80;21566;-71
2022/04/09 09:49:53;;;;;;;7.67;2.30;;;;;;;10.23;85.55;98552.92;1733798;82;21035;-72
2022/04/09 09:52:32;;;;;;;5.28;2.55;;;;;;;10.26;85.09;98548.81;1742763;82;20998;-72
2022/04/09 09:55:10;;;;;;;4.97;2.72;;;;;;;10.31;85.08;98543.74;1742716;82;21061;-72
2022/04/09 09:57:41;;;;;;;3.77;2.35;;;;;;;10.39;85.30;98544.13;1743060;82;21537;-72
2022/04/09 10:00:11;;;;;;;4.65;2.30;;;;;;;10.52;86.42;98542.44;1742895;82;21025;-70
2022/04/09 10:02:39;;;;;;;5.70;2.37;;;;;;;10.60;85.79;98537.53;1743241;82;21266;-71
2022/04/09 10:05:07;;;;;;;3.77;2.20;;;;;;;10.70;86.73;98533.39;1742800;82;21597;-71
2022/04/09 10:07:35;;;;;;;4.10;2.42;;;;;;;10.86;85.02;98532.44;1743283;82;21136;-71
2022/04/09 10:10:04;;;;;;;6.40;2.90;;;;;;;11.02;86.05;98523.92;1742676;82;21538;-70
2022/04/09 10:12:40;;;;;;;7.05;2.87;;;;;;;11.17;85.90;98519.91;1741837;82;21545;-70
2022/04/09 10:15:08;;;;;;;13.00;4.12;;;;;;;11.27;84.49;98503.86;1746064;82;21553;-71
2022/04/09 10:17:35;;;;;;;11.53;4.30;;;;;;;11.37;83.90;98496.22;1742589;82;21057;-70
2022/04/09 10:20:04;;;;;;;12.10;3.95;;;;;;;11.36;83.52;98492.71;1742920;82;21105;-71
2022/04/09 10:22:45;;;;;;;8.00;3.77;;;;;;;11.39;83.87;98478.03;1742598;82;21057;-70
2022/04/09 10:25:12;;;;;;;9.00;3.90;;;;;;;11.40;82.80;98477.07;1742364;82;21112;-71
2022/04/09 10:27:45;;;;;;;5.10;3.12;;;;;;;11.40;82.76;98474.44;1721911;82;22124;-71
2022/04/09 10:30:26;;;;;;;8.58;2.77;;;;;;;11.39;83.82;98463.53;1742599;82;21061;-73
2022/04/09 10:32:58;;;;;;;6.25;2.80;;;;;;;11.39;83.49;98462.22;1742432;82;21076;-72
2022/04/09 10:35:40;;;;;;;10.13;3.90;;;;;;;11.40;82.03;98462.58;1742383;82;21644;-71
2022/04/09 10:38:13;;;;;;;9.25;4.40;;;;;;;11.40;81.65;98457.30;1721048;82;21100;-71
2022/04/09 10:40:55;;;;;;;7.80;3.40;;;;;;;11.38;82.03;98457.04;1742514;82;21087;-71
2022/04/09 10:43:30;;;;;;;7.72;3.00;;;;;;;11.38;82.45;98467.58;1742560;82;21125;-70
2022/04/09 10:46:18;;;;;;;5.25;2.52;;;;;;;11.39;81.50;98488.58;1741738;82;21117;-71
2022/04/09 10:48:48;;;;;;;5.97;2.47;;;;;;;11.37;81.99;98486.51;1741664;82;21030;-70
2022/04/09 10:51:15;;;;;;;6.42;2.62;;;;;;;11.29;79.63;98476.94;1758502;80;21085;-71
2022/04/09 10:53:49;;;;;;;5.28;2.50;;;;;;;11.23;79.41;98473.41;1773256;80;21013;-71
2022/04/09 10:56:28;;;;;;;9.58;2.80;;;;;;;11.20;80.33;98476.23;1771999;80;21088;-70
2022/04/09 10:59:15;;;;;;;5.45;2.60;;;;;;;11.20;81.37;98474.91;1773397;80;21613;-71
2022/04/09 11:01:50;;;;;;;7.92;3.20;;;;;;;11.19;80.79;98469.28;1773369;80;21255;-72
2022/04/09 11:04:35;;;;;;;4.47;2.72;;;;;;;11.23;81.50;98478.68;1773567;80;21566;-70
2022/04/09 11:07:23;;;;;;;6.95;3.25;;;;;;;11.25;83.05;98471.49;1773339;80;20998;-70
2022/04/09 11:10:00;;;;;;;8.63;3.50;;;;;;;11.28;82.97;98471.31;1773613;80;21037;-71
2022/04/09 11:12:43;;;;;;;7.08;3.00;;;;;;;11.31;82.53;98464.02;1773214;80;21022;-71
2022/04/09 11:15:13;;;;;;;6.92;2.67;;;;;;;11.36;83.12;98469.47;1773767;80;21129;-70
2022/04/09 11:17:43;;;;;;;7.28;2.70;;;;;;;11.38;82.66;98471.05;1773248;80;21050;-70
2022/04/09 11:20:17;;;;;;;7.03;3.17;;;;;;;11.44;82.53;98465.86;1773228;80;21085;-70
2022/04/09 11:22:48;;;;;;;7.42;3.60;;;;;;;11.53;83.36;98451.58;1773358;80;21034;-69
2022/04/09 11:25:24;;;;;;;13.50;4.17;;;;;;;11.65;82.79;98446.42;1773682;80;21045;-71
2022/04/09 11:27:53;;;;;;;6.97;3.02;;;;;;;11.77;82.09;98438.98;1773459;80;21287;-71
2022/04/09 11:30:20;;;;;;;9.90;3.60;;;;;;;11.87;81.40;98441.41;1773650;80;21070;-69
2022/04/09 11:32:48;;;;;;;11.05;3.75;;;;;;;11.90;80.32;98433.75;1773526;80;21002;-71
2022/04/09 11:35:23;;;;;;;11.78;3.50;;;;;;;11.90;80.17;98421.40;1773573;80;21046;-71
2022/04/09 11:37:48;;;;;;;10.35;4.15;;;;;;;11.90;80.42;98414.80;1771950;80;20997;-71
2022/04/09 11:40:16;;;;;;;8.50;4.75;;;;;;;11.90;80.04;98417.44;1773381;80;21237;-71